Time;durP1;ratioP1;P1;durP2;ratioP2;P2;SDS_P1;SDS_P2;PMS_P1;PMS_P2;Temp;Humidity;BMP_temperature;BMP_pressure;BME280_temperature;BME280_humidity;BME280_pressure;Samples;Min_cycle;Max_cycle;Signal;HPM_P1;HPM_P2
2021/12/12 00:00:50;;;;;;;61.92;35.72;;;4.30;99.90;;;;;;5103160;27;20126;-63
2021/12/12 00:03:32;;;;;;;59.85;36.15;;;4.30;99.90;;;;;;5098904;27;20039;-63
2021/12/12 00:05:59;;;;;;;63.58;35.33;;;4.30;99.90;;;;;;5099980;28;20149;-63
2021/12/12 00:08:27;;;;;;;55.80;35.00;;;4.30;99.90;;;;;;5101386;27;20053;-63
2021/12/12 00:10:59;;;;;;;62.55;36.47;;;4.30;99.90;;;;;;5102311;28;20039;-63
2021/12/12 00:13:32;;;;;;;80.07;36.55;;;4.30;99.90;;;;;;5103055;27;20119;-63
2021/12/12 00:15:57;;;;;;;60.35;36.45;;;4.30;99.90;;;;;;5100967;28;20054;-63
2021/12/12 00:18:23;;;;;;;59.75;35.95;;;4.30;99.90;;;;;;5101785;27;20039;-63
2021/12/12 00:20:50;;;;;;;53.70;34.25;;;4.30;99.90;;;;;;5097695;27;20094;-63
2021/12/12 00:23:17;;;;;;;63.08;35.50;;;4.30;99.90;;;;;;5095018;27;20059;-63
2021/12/12 00:25:46;;;;;;;57.08;35.13;;;4.30;99.90;;;;;;5095172;28;20039;-63
2021/12/12 00:28:15;;;;;;;53.00;32.88;;;4.30;99.90;;;;;;5098788;28;20048;-63
2021/12/12 00:30:42;;;;;;;52.13;33.60;;;4.30;99.90;;;;;;5096091;27;20035;-63
2021/12/12 00:33:09;;;;;;;58.40;34.22;;;4.30;99.90;;;;;;5096355;28;20047;-63
2021/12/12 00:35:36;;;;;;;62.85;32.83;;;4.30;99.90;;;;;;5128196;27;20393;-63
2021/12/12 00:38:07;;;;;;;52.03;32.97;;;4.30;99.90;;;;;;5099374;27;20052;-63
2021/12/12 00:40:36;;;;;;;45.38;32.20;;;4.40;99.90;;;;;;5096515;27;20043;-63
2021/12/12 00:43:11;;;;;;;65.68;36.95;;;4.30;99.90;;;;;;5093886;27;20048;-63
2021/12/12 00:45:38;;;;;;;54.90;33.10;;;4.30;99.90;;;;;;5092740;27;21938;-63
2021/12/12 00:48:04;;;;;;;58.08;34.33;;;4.40;99.90;;;;;;5094669;28;20444;-63
2021/12/12 00:50:34;;;;;;;55.20;33.53;;;4.40;99.90;;;;;;5093782;28;20170;-63
2021/12/12 00:53:01;;;;;;;52.70;33.47;;;4.30;99.90;;;;;;5094271;27;20051;-63
2021/12/12 00:55:28;;;;;;;56.30;34.22;;;4.30;99.90;;;;;;5093470;28;20048;-63
2021/12/12 00:57:54;;;;;;;57.33;33.88;;;4.30;99.90;;;;;;5093532;27;20057;-63
2021/12/12 01:00:25;;;;;;;59.03;33.95;;;4.40;99.90;;;;;;5097973;27;20048;-63
2021/12/12 01:02:53;;;;;;;52.72;33.65;;;4.30;99.90;;;;;;5095389;28;20105;-63
2021/12/12 01:05:19;;;;;;;55.50;32.88;;;4.40;99.90;;;;;;5092518;27;20040;-63
2021/12/12 01:07:48;;;;;;;55.28;33.17;;;4.40;99.90;;;;;;5095280;27;20043;-63
2021/12/12 01:10:40;;;;;;;63.33;32.50;;;4.40;99.90;;;;;;5097210;27;20031;-63
2021/12/12 01:13:07;;;;;;;64.97;33.03;;;4.40;99.90;;;;;;5127804;27;20115;-63
2021/12/12 01:15:53;;;;;;;51.70;32.22;;;4.40;99.90;;;;;;5095019;27;20153;-63
2021/12/12 01:18:23;;;;;;;54.13;32.03;;;4.50;99.90;;;;;;5099009;28;20135;-63
2021/12/12 01:20:56;;;;;;;51.05;29.83;;;4.40;99.90;;;;;;5093530;27;20035;-63
2021/12/12 01:23:28;;;;;;;53.63;32.20;;;4.40;99.90;;;;;;5092703;27;20122;-63
2021/12/12 01:25:55;;;;;;;47.97;29.63;;;4.40;99.90;;;;;;5094898;28;20397;-63
2021/12/12 01:28:26;;;;;;;52.55;31.08;;;4.50;99.90;;;;;;5097113;27;20051;-63
2021/12/12 01:30:55;;;;;;;49.78;30.67;;;4.50;99.90;;;;;;5098108;28;20043;-63
2021/12/12 01:33:32;;;;;;;52.75;30.90;;;4.50;99.90;;;;;;5094609;28;20429;-63
2021/12/12 01:36:23;;;;;;;55.22;31.67;;;4.50;99.90;;;;;;5095641;27;20427;-63
2021/12/12 01:38:55;;;;;;;54.25;31.40;;;4.50;99.90;;;;;;5129180;27;20040;-63
2021/12/12 01:41:33;;;;;;;52.25;31.42;;;4.50;99.90;;;;;;5097400;28;20083;-63
2021/12/12 01:44:04;;;;;;;52.35;30.25;;;4.50;99.90;;;;;;5100682;28;20051;-63
2021/12/12 01:46:41;;;;;;;48.13;31.23;;;4.50;99.90;;;;;;5126657;27;20035;-63
2021/12/12 01:49:11;;;;;;;52.10;30.17;;;4.50;99.90;;;;;;5097232;28;20039;-63
2021/12/12 01:51:38;;;;;;;56.15;31.15;;;4.50;99.90;;;;;;5095308;28;20486;-63
2021/12/12 01:54:06;;;;;;;54.17;29.13;;;4.60;99.90;;;;;;5091447;28;20611;-63
2021/12/12 01:56:42;;;;;;;58.75;30.90;;;4.60;99.90;;;;;;5132431;27;20043;-63
2021/12/12 01:59:09;;;;;;;50.55;31.10;;;4.60;99.90;;;;;;5130951;27;20047;-63
2021/12/12 02:01:47;;;;;;;56.35;31.02;;;4.60;99.90;;;;;;5129936;27;20048;-63
2021/12/12 02:04:20;;;;;;;47.00;28.17;;;4.60;99.90;;;;;;5092101;28;20048;-63
2021/12/12 02:06:48;;;;;;;55.40;29.90;;;4.60;99.90;;;;;;5095488;28;20032;-63
2021/12/12 02:09:16;;;;;;;52.33;27.88;;;4.60;99.90;;;;;;5092125;28;20976;-63
2021/12/12 02:11:43;;;;;;;45.20;26.85;;;4.70;99.90;;;;;;5094837;28;20063;-63
2021/12/12 02:14:12;;;;;;;54.53;27.67;;;4.70;99.90;;;;;;5095706;28;20216;-63
2021/12/12 02:16:45;;;;;;;46.58;27.52;;;4.60;99.90;;;;;;5129396;27;20040;-63
2021/12/12 02:19:11;;;;;;;49.42;25.67;;;4.70;99.90;;;;;;5097330;28;20048;-63
2021/12/12 02:21:58;;;;;;;59.92;27.63;;;4.70;99.90;;;;;;5093240;28;20105;-63
2021/12/12 02:35:07;;;;;;;46.53;24.45;;;4.70;99.90;;;;;;5098284;28;22122;-63
2021/12/12 02:35:48;;;;;;;40.45;22.30;;;4.80;99.90;;;;;;5092868;28;20052;-63
2021/12/12 02:38:19;;;;;;;41.85;24.90;;;4.80;99.90;;;;;;5094237;28;20086;-63
2021/12/12 02:40:53;;;;;;;46.10;24.65;;;4.80;99.90;;;;;;5092232;28;20067;-63
2021/12/12 02:43:23;;;;;;;44.95;24.02;;;4.80;99.90;;;;;;5097563;28;20087;-63
2021/12/12 02:45:56;;;;;;;44.70;24.15;;;4.80;99.90;;;;;;5092228;28;21763;-63
2021/12/12 02:48:32;;;;;;;42.63;23.80;;;4.80;99.90;;;;;;5095486;28;20036;-63
2021/12/12 02:50:59;;;;;;;;;;;4.80;99.90;;;;;;5092272;28;20075;-63
2021/12/12 02:53:35;;;;;;;47.40;23.83;;;4.80;99.90;;;;;;5127763;27;19926;-63
2021/12/12 02:56:09;;;;;;;45.20;25.70;;;4.80;99.90;;;;;;5097159;28;20385;-63
2021/12/12 02:58:35;;;;;;;39.40;23.88;;;4.80;99.90;;;;;;5097015;28;20071;-63
2021/12/12 03:01:12;;;;;;;50.55;24.33;;;4.80;99.90;;;;;;5126389;27;20528;-63
2021/12/12 03:03:40;;;;;;;38.70;23.17;;;4.80;99.90;;;;;;5080836;28;20052;-63
2021/12/12 03:06:09;;;;;;;36.72;21.63;;;4.80;99.90;;;;;;5091871;28;20064;-63
2021/12/12 03:08:37;;;;;;;39.80;23.20;;;4.80;99.90;;;;;;5096900;28;20111;-63
2021/12/12 03:11:03;;;;;;;35.28;21.55;;;4.70;99.90;;;;;;5095616;28;20187;-63
2021/12/12 03:13:28;;;;;;;40.97;22.45;;;4.80;99.90;;;;;;5134307;27;20047;-63
2021/12/12 03:15:55;;;;;;;39.17;23.75;;;4.80;99.90;;;;;;5097148;28;20112;-63
2021/12/12 03:18:30;;;;;;;34.13;21.58;;;4.80;99.90;;;;;;5097631;28;20532;-63
2021/12/12 03:21:02;;;;;;;35.03;21.00;;;4.80;99.90;;;;;;5097920;28;20036;-63
2021/12/12 03:23:35;;;;;;;37.40;20.65;;;4.80;99.90;;;;;;5099901;28;20054;-63
2021/12/12 03:26:04;;;;;;;37.75;21.20;;;4.80;99.90;;;;;;5100051;27;20050;-63
2021/12/12 03:28:33;;;;;;;35.17;20.38;;;4.80;99.90;;;;;;5133131;27;20534;-63
2021/12/12 03:31:02;;;;;;;33.65;20.55;;;4.80;99.90;;;;;;5101090;27;20046;-63
2021/12/12 03:33:31;;;;;;;36.63;20.75;;;4.80;99.90;;;;;;5099238;28;20122;-63
2021/12/12 03:35:59;;;;;;;35.22;20.60;;;4.80;99.90;;;;;;5102399;28;20051;-63
2021/12/12 03:38:27;;;;;;;31.00;19.70;;;4.80;99.90;;;;;;5104815;28;20741;-63
2021/12/12 03:40:54;;;;;;;29.48;18.60;;;4.90;99.90;;;;;;5098159;28;20044;-63
2021/12/12 03:43:20;;;;;;;30.77;17.98;;;4.80;99.90;;;;;;5100117;28;20044;-63
2021/12/12 03:45:46;;;;;;;38.55;20.83;;;4.80;99.90;;;;;;5100740;28;20040;-63
2021/12/12 03:48:26;;;;;;;36.20;19.30;;;4.80;99.90;;;;;;5103702;28;20490;-63
2021/12/12 03:50:54;;;;;;;37.58;19.52;;;4.90;99.90;;;;;;5099914;28;20039;-63
2021/12/12 03:53:20;;;;;;;26.73;16.77;;;4.90;99.90;;;;;;5115032;27;20101;-63
2021/12/12 03:55:48;;;;;;;33.25;18.50;;;4.90;99.90;;;;;;5101366;28;20043;-63
2021/12/12 03:58:14;;;;;;;29.98;17.65;;;4.90;99.90;;;;;;5104338;28;20513;-62
2021/12/12 04:00:45;;;;;;;31.48;18.58;;;4.90;99.90;;;;;;5135472;27;20036;-63
2021/12/12 04:03:12;;;;;;;28.83;16.15;;;4.90;99.90;;;;;;5099290;28;20075;-63
2021/12/12 04:05:38;;;;;;;28.33;18.05;;;4.90;99.90;;;;;;5098581;28;21299;-63
2021/12/12 04:08:05;;;;;;;27.95;16.65;;;5.00;99.90;;;;;;5100882;28;20035;-63
2021/12/12 04:10:31;;;;;;;26.55;18.17;;;4.90;99.90;;;;;;5102461;28;20067;-63
2021/12/12 04:12:57;;;;;;;32.90;16.80;;;5.00;99.90;;;;;;5101104;28;20094;-63
2021/12/12 04:15:23;;;;;;;22.95;15.20;;;5.00;99.90;;;;;;5099593;28;20036;-63
2021/12/12 04:17:49;;;;;;;28.05;17.35;;;5.00;99.90;;;;;;5102359;28;20044;-63
2021/12/12 04:20:27;;;;;;;26.98;16.52;;;5.00;99.90;;;;;;5106617;27;20127;-63
2021/12/12 04:22:54;;;;;;;28.92;17.38;;;4.90;99.90;;;;;;5132232;27;20048;-63
2021/12/12 04:25:21;;;;;;;28.30;15.70;;;5.00;99.90;;;;;;5099741;28;20071;-63
2021/12/12 04:27:48;;;;;;;25.83;16.83;;;5.00;99.90;;;;;;5135614;27;20089;-63
2021/12/12 04:30:16;;;;;;;22.63;14.95;;;5.00;99.90;;;;;;5101775;28;20039;-63
2021/12/12 04:32:43;;;;;;;24.77;15.35;;;5.00;99.90;;;;;;5100053;28;20042;-63
2021/12/12 04:35:17;;;;;;;26.30;16.83;;;5.00;99.90;;;;;;5098021;28;20139;-63
2021/12/12 04:37:44;;;;;;;22.92;15.27;;;5.00;99.90;;;;;;5103429;27;20036;-63
2021/12/12 04:40:15;;;;;;;21.23;16.02;;;5.00;99.90;;;;;;5102407;28;20471;-63
2021/12/12 04:42:42;;;;;;;24.02;14.82;;;5.00;99.90;;;;;;5099526;28;20043;-63
2021/12/12 04:45:35;;;;;;;21.23;16.13;;;5.10;99.90;;;;;;5097485;28;20389;-63
2021/12/12 04:51:23;;;;;;;17.45;14.40;;;5.10;99.90;;;;;;5100565;27;20851;-63
2021/12/12 04:53:58;;;;;;;17.00;14.25;;;5.10;99.90;;;;;;5099874;27;20095;-63
2021/12/12 04:56:53;;;;;;;18.10;14.23;;;5.10;99.90;;;;;;5132630;27;20067;-63
2021/12/12 04:59:40;;;;;;;23.05;13.38;;;5.10;99.90;;;;;;5094750;28;20104;-63
2021/12/12 05:02:05;;;;;;;;;;;5.20;99.90;;;;;;5100648;28;20056;-62
2021/12/12 05:04:40;;;;;;;19.10;12.60;;;5.20;99.90;;;;;;5101034;28;19920;-62
2021/12/12 05:07:18;;;;;;;19.70;13.48;;;5.20;99.90;;;;;;5098953;27;20059;-63
2021/12/12 05:10:12;;;;;;;20.42;12.43;;;5.20;99.90;;;;;;5134896;27;20542;-63
2021/12/12 05:12:47;;;;;;;16.02;12.15;;;5.20;99.90;;;;;;5100609;28;20035;-63
2021/12/12 05:15:41;;;;;;;17.17;12.80;;;5.20;99.90;;;;;;5097719;28;20949;-63
2021/12/12 05:18:15;;;;;;;18.48;12.25;;;5.20;99.90;;;;;;5102216;28;20068;-63
2021/12/12 05:20:48;;;;;;;12.23;10.27;;;5.30;99.90;;;;;;5136473;27;20038;-63
2021/12/12 05:23:18;;;;;;;11.95;10.70;;;5.30;99.90;;;;;;5132661;27;20423;-63
2021/12/12 05:25:53;;;;;;;11.65;10.45;;;5.30;99.90;;;;;;5096324;28;20036;-63
2021/12/12 05:28:22;;;;;;;13.25;10.82;;;5.30;99.90;;;;;;5098307;28;20380;-63
2021/12/12 05:30:48;;;;;;;15.35;11.57;;;5.40;99.90;;;;;;5098548;27;20044;-63
2021/12/12 05:33:17;;;;;;;13.82;11.70;;;5.40;99.90;;;;;;5099224;28;20043;-63
2021/12/12 05:35:45;;;;;;;13.65;12.20;;;5.30;99.90;;;;;;5096255;28;20489;-63
2021/12/12 05:38:12;;;;;;;15.65;10.98;;;5.40;99.90;;;;;;5098647;28;20051;-63
2021/12/12 05:40:41;;;;;;;13.90;11.55;;;5.40;99.90;;;;;;5132085;27;20039;-63
2021/12/12 05:43:13;;;;;;;12.82;11.25;;;5.40;99.90;;;;;;5100679;27;20072;-63
2021/12/12 05:45:40;;;;;;;15.07;11.43;;;5.40;99.90;;;;;;5099431;28;20039;-63
2021/12/12 05:48:07;;;;;;;12.23;10.90;;;5.40;99.90;;;;;;5100543;28;20040;-63
2021/12/12 05:50:33;;;;;;;13.07;11.48;;;5.40;99.90;;;;;;5100349;28;20046;-63
2021/12/12 05:52:59;;;;;;;14.07;11.23;;;5.50;99.90;;;;;;5114204;27;20032;-63
2021/12/12 05:55:29;;;;;;;14.35;12.07;;;5.50;99.90;;;;;;5099246;28;20043;-63
2021/12/12 05:57:56;;;;;;;14.38;12.10;;;5.50;99.90;;;;;;5098792;28;20538;-63
2021/12/12 06:00:28;;;;;;;14.93;12.15;;;5.60;99.90;;;;;;5130035;27;20075;-63
2021/12/12 06:02:55;;;;;;;14.30;12.52;;;5.50;99.90;;;;;;5098327;28;20035;-63
2021/12/12 06:05:21;;;;;;;15.50;13.13;;;5.50;99.90;;;;;;5095090;28;20047;-63
2021/12/12 06:07:49;;;;;;;14.45;11.32;;;5.60;99.90;;;;;;5091098;28;20050;-63
2021/12/12 06:10:17;;;;;;;13.95;12.45;;;5.60;99.90;;;;;;5092304;28;20051;-63
2021/12/12 06:12:43;;;;;;;15.40;13.75;;;5.60;99.90;;;;;;5095696;28;20036;-63
2021/12/12 06:15:12;;;;;;;15.95;12.23;;;5.60;99.90;;;;;;5092050;28;20120;-63
2021/12/12 06:17:38;;;;;;;16.27;13.50;;;5.50;99.90;;;;;;5091251;28;20032;-63
2021/12/12 06:20:09;;;;;;;17.20;15.02;;;5.60;99.90;;;;;;5089152;28;20035;-63
2021/12/12 06:22:37;;;;;;;15.90;14.23;;;5.60;99.90;;;;;;5091819;28;20098;-63
2021/12/12 06:25:08;;;;;;;15.20;13.70;;;5.60;99.90;;;;;;5089499;28;20074;-63
2021/12/12 06:27:36;;;;;;;17.65;13.68;;;5.70;99.90;;;;;;5091091;28;20121;-63
2021/12/12 06:30:08;;;;;;;14.95;13.35;;;5.60;99.90;;;;;;5091565;28;20072;-63
2021/12/12 06:32:33;;;;;;;15.20;12.75;;;5.60;99.90;;;;;;5090628;28;20054;-63
2021/12/12 06:34:59;;;;;;;15.43;13.82;;;5.70;99.90;;;;;;5087556;28;20028;-63
2021/12/12 06:37:26;;;;;;;16.20;13.93;;;5.60;99.90;;;;;;5094383;28;20089;-63
2021/12/12 06:39:53;;;;;;;15.82;13.55;;;5.70;99.90;;;;;;5091893;28;20044;-63
2021/12/12 06:42:19;;;;;;;16.17;14.00;;;5.80;99.90;;;;;;5089365;28;20123;-63
2021/12/12 06:44:45;;;;;;;14.82;13.02;;;5.80;99.90;;;;;;5091038;28;20042;-63
2021/12/12 06:47:15;;;;;;;14.65;13.10;;;5.80;99.90;;;;;;5095713;27;20047;-63
2021/12/12 06:49:40;;;;;;;14.32;12.38;;;5.80;99.90;;;;;;5094296;28;20051;-63
2021/12/12 06:52:10;;;;;;;14.35;12.85;;;5.70;99.90;;;;;;5100810;27;20043;-62
2021/12/12 06:54:36;;;;;;;15.32;13.77;;;5.80;99.90;;;;;;5092107;28;20123;-63
2021/12/12 06:57:08;;;;;;;15.32;13.68;;;5.80;99.90;;;;;;5097633;28;20051;-63
2021/12/12 06:59:36;;;;;;;13.77;12.48;;;5.80;99.90;;;;;;5099596;28;20505;-63
2021/12/12 07:02:04;;;;;;;14.43;12.95;;;5.90;99.90;;;;;;5129812;27;20044;-63
2021/12/12 07:04:32;;;;;;;14.57;12.73;;;5.90;99.90;;;;;;5099427;28;20051;-63
2021/12/12 07:07:00;;;;;;;13.00;11.77;;;5.90;99.90;;;;;;5101656;27;20859;-63
2021/12/12 07:09:30;;;;;;;15.00;13.48;;;5.90;99.90;;;;;;5099585;28;20074;-63
2021/12/12 07:11:58;;;;;;;14.95;12.40;;;5.90;99.90;;;;;;5103629;28;20438;-63
2021/12/12 07:14:25;;;;;;;12.25;10.98;;;6.00;99.90;;;;;;5100305;28;20032;-63
2021/12/12 07:16:51;;;;;;;13.32;11.65;;;5.90;99.90;;;;;;5096927;28;20040;-63
2021/12/12 07:19:17;;;;;;;12.30;11.10;;;6.00;99.90;;;;;;5097483;28;20047;-63
2021/12/12 07:21:44;;;;;;;13.65;12.27;;;6.00;99.90;;;;;;5097911;28;20500;-63
2021/12/12 07:24:11;;;;;;;13.30;11.00;;;6.00;99.90;;;;;;5099856;27;20048;-63
2021/12/12 07:26:37;;;;;;;13.35;11.95;;;6.00;99.90;;;;;;5130662;27;20504;-63
2021/12/12 07:29:04;;;;;;;13.65;12.23;;;6.10;99.90;;;;;;5102287;28;20046;-63
2021/12/12 07:31:33;;;;;;;13.90;12.50;;;6.00;99.90;;;;;;5096758;27;20031;-63
2021/12/12 07:34:02;;;;;;;14.43;12.90;;;6.10;99.90;;;;;;5096977;28;20055;-63
2021/12/12 07:36:31;;;;;;;14.45;12.38;;;6.10;99.90;;;;;;5098462;27;20123;-63
2021/12/12 07:39:00;;;;;;;15.05;12.55;;;6.10;99.90;;;;;;5096252;27;20039;-63
2021/12/12 07:41:29;;;;;;;14.02;12.50;;;6.10;99.90;;;;;;5131498;27;20046;-63
2021/12/12 07:43:56;;;;;;;16.88;13.40;;;6.20;99.90;;;;;;5097202;28;20047;-63
2021/12/12 07:46:23;;;;;;;15.70;13.15;;;6.20;99.90;;;;;;5086962;28;20092;-63
2021/12/12 07:48:51;;;;;;;15.52;13.57;;;6.20;99.90;;;;;;5099003;28;20039;-63
2021/12/12 07:51:19;;;;;;;13.80;12.07;;;6.20;99.90;;;;;;5095780;27;20067;-63
2021/12/12 07:53:49;;;;;;;13.95;12.10;;;6.20;99.90;;;;;;5098946;27;20391;-63
2021/12/12 07:56:16;;;;;;;13.77;12.27;;;6.30;99.90;;;;;;5096849;28;20118;-63
2021/12/12 07:58:43;;;;;;;13.85;12.32;;;6.20;99.90;;;;;;5100748;27;20047;-63
2021/12/12 08:01:09;;;;;;;13.02;11.68;;;6.30;99.90;;;;;;5096620;28;20044;-63
2021/12/12 08:03:36;;;;;;;14.57;11.75;;;6.30;99.90;;;;;;5096879;27;20044;-63
2021/12/12 08:06:04;;;;;;;12.15;10.70;;;6.30;99.90;;;;;;5093526;28;20036;-63
2021/12/12 08:08:31;;;;;;;12.63;11.35;;;6.30;99.90;;;;;;5101436;27;20676;-63
2021/12/12 08:10:58;;;;;;;12.77;11.48;;;6.30;99.90;;;;;;5099647;28;20054;-63
2021/12/12 08:13:24;;;;;;;15.77;12.98;;;6.30;99.90;;;;;;5092748;28;20072;-63
2021/12/12 08:15:50;;;;;;;19.58;14.45;;;6.40;99.90;;;;;;5095729;28;20463;-63
2021/12/12 08:18:19;;;;;;;19.42;14.32;;;6.40;99.90;;;;;;5132484;27;20137;-63
2021/12/12 08:20:48;;;;;;;17.40;14.63;;;6.40;99.90;;;;;;5132953;27;20035;-63
2021/12/12 08:23:15;;;;;;;18.10;14.98;;;6.40;99.90;;;;;;5132566;27;20083;-63
2021/12/12 08:25:43;;;;;;;17.27;14.88;;;6.50;99.90;;;;;;5097250;28;20076;-63
2021/12/12 08:28:09;;;;;;;18.73;15.45;;;6.50;99.90;;;;;;5096232;27;20765;-63
2021/12/12 08:30:36;;;;;;;17.50;14.60;;;6.50;99.90;;;;;;5129073;27;20036;-63
2021/12/12 08:33:05;;;;;;;19.58;16.15;;;6.50;99.90;;;;;;5096956;27;20056;-63
2021/12/12 08:35:32;;;;;;;21.42;16.70;;;6.50;99.90;;;;;;5094847;28;20104;-63
2021/12/12 08:38:00;;;;;;;20.70;14.93;;;6.60;99.90;;;;;;5128061;27;20039;-63
2021/12/12 08:40:30;;;;;;;18.33;15.75;;;6.60;99.90;;;;;;5134459;27;20046;-63
2021/12/12 08:42:56;;;;;;;20.55;16.35;;;6.60;99.90;;;;;;5098022;28;20055;-63
2021/12/12 08:45:29;;;;;;;21.85;16.75;;;6.70;99.90;;;;;;5097471;27;20639;-63
2021/12/12 08:48:02;;;;;;;21.02;16.25;;;6.70;99.90;;;;;;5098654;27;20558;-63
2021/12/12 08:50:34;;;;;;;21.85;17.20;;;6.70;99.90;;;;;;5098491;28;20039;-63
2021/12/12 08:53:00;;;;;;;24.52;17.80;;;6.80;99.90;;;;;;5097923;27;20040;-63
2021/12/12 08:55:33;;;;;;;25.08;17.95;;;6.80;99.90;;;;;;5084605;27;20130;-63
2021/12/12 08:58:14;;;;;;;29.20;18.60;;;6.90;99.90;;;;;;5102576;28;20386;-63
2021/12/12 09:00:48;;;;;;;26.05;18.13;;;6.90;99.90;;;;;;5102356;27;20046;-63
2021/12/12 09:03:32;;;;;;;32.85;19.83;;;6.90;99.90;;;;;;5101698;27;20095;-63
2021/12/12 09:05:58;;;;;;;27.40;19.85;;;6.90;99.90;;;;;;5101599;27;20047;-63
2021/12/12 09:08:32;;;;;;;31.48;20.40;;;7.00;99.90;;;;;;5103924;27;20044;-63
2021/12/12 09:11:37;;;;;;;35.35;21.67;;;7.00;99.90;;;;;;5104582;27;20445;-63
2021/12/12 09:14:08;;;;;;;34.70;21.98;;;7.10;99.90;;;;;;5079470;28;20509;-63
2021/12/12 09:16:41;;;;;;;35.67;22.83;;;7.10;99.90;;;;;;5099383;27;20047;-63
2021/12/12 09:19:12;;;;;;;34.53;22.95;;;7.20;99.90;;;;;;5102835;27;20042;-63
2021/12/12 09:21:48;;;;;;;37.30;23.30;;;7.10;99.90;;;;;;5102594;27;20037;-63
2021/12/12 09:24:44;;;;;;;44.00;25.20;;;7.20;99.90;;;;;;5101518;27;20435;-63
2021/12/12 09:27:16;;;;;;;38.33;24.95;;;7.20;99.90;;;;;;5105574;27;20496;-63
2021/12/12 09:30:05;;;;;;;47.22;26.25;;;7.30;99.90;;;;;;5104700;27;20101;-63
2021/12/12 09:32:58;;;;;;;41.38;25.52;;;7.20;99.90;;;;;;5101796;27;20435;-63
2021/12/12 09:35:32;;;;;;;49.35;26.83;;;7.30;99.90;;;;;;5101579;27;21635;-63
2021/12/12 09:38:17;;;;;;;45.38;26.95;;;7.30;99.90;;;;;;5105077;27;20085;-63
2021/12/12 09:40:45;;;;;;;47.28;27.08;;;7.30;99.90;;;;;;5106193;28;20046;-63
2021/12/12 09:43:29;;;;;;;45.38;26.98;;;7.40;99.90;;;;;;5101190;28;20483;-63
2021/12/12 09:46:28;;;;;;;45.33;26.38;;;7.40;99.90;;;;;;5104436;28;20046;-63
2021/12/12 09:52:18;;;;;;;45.63;26.48;;;7.50;99.90;;;;;;5104952;27;20039;-63
2021/12/12 09:54:49;;;;;;;46.20;26.80;;;7.50;99.90;;;;;;5099741;27;20130;-63
2021/12/12 09:57:37;;;;;;;48.05;27.08;;;7.60;99.90;;;;;;5106004;28;20150;-63
2021/12/12 10:00:18;;;;;;;50.55;27.00;;;7.60;99.90;;;;;;5102510;27;20044;-63
2021/12/12 10:02:52;;;;;;;49.28;27.58;;;7.60;99.90;;;;;;5101613;28;20036;-63
2021/12/12 10:05:46;;;;;;;47.08;26.55;;;7.60;99.90;;;;;;5103954;27;20090;-63
2021/12/12 10:08:52;;;;;;;42.13;26.08;;;7.60;99.90;;;;;;5102343;28;20903;-63
2021/12/12 10:11:59;;;;;;;42.75;25.63;;;7.60;99.90;;;;;;5103111;27;20457;-63
2021/12/12 10:14:50;;;;;;;45.63;25.67;;;7.70;99.90;;;;;;5104554;28;20055;-63
2021/12/12 10:17:42;;;;;;;42.40;25.30;;;7.80;99.90;;;;;;5136400;27;20059;-63
2021/12/12 10:20:46;;;;;;;39.75;24.52;;;7.80;99.90;;;;;;5104101;28;20050;-63
2021/12/12 10:23:38;;;;;;;41.03;23.27;;;7.80;99.90;;;;;;5101918;28;20052;-63
2021/12/12 10:26:05;;;;;;;35.13;21.92;;;7.80;99.90;;;;;;5102892;28;20043;-63
2021/12/12 10:28:35;;;;;;;32.50;21.63;;;7.90;99.90;;;;;;5104526;28;20032;-63
2021/12/12 10:31:06;;;;;;;39.95;22.98;;;7.90;99.90;;;;;;5102919;28;20036;-63
2021/12/12 10:33:46;;;;;;;36.88;22.65;;;7.90;99.90;;;;;;5103719;28;20101;-63
2021/12/12 10:36:19;;;;;;;35.13;21.48;;;8.00;99.90;;;;;;5101082;28;20091;-63
2021/12/12 10:39:17;;;;;;;33.97;21.58;;;8.00;99.90;;;;;;5134630;27;20075;-63
2021/12/12 10:42:14;;;;;;;31.77;20.73;;;8.10;99.90;;;;;;5101326;28;20093;-63
2021/12/12 10:44:48;;;;;;;32.42;21.00;;;8.10;99.90;;;;;;5097872;28;20085;-63
2021/12/12 10:47:28;;;;;;;30.83;20.98;;;8.10;99.90;;;;;;5118950;27;20078;-63
2021/12/12 10:50:12;;;;;;;32.78;21.55;;;8.20;99.90;;;;;;5102336;28;20115;-64
2021/12/12 10:52:56;;;;;;;30.20;19.63;;;8.20;99.90;;;;;;5099283;28;20043;-64
2021/12/12 10:55:36;;;;;;;27.77;18.42;;;8.20;99.90;;;;;;5102416;28;20397;-63
2021/12/12 10:58:21;;;;;;;31.38;19.70;;;8.20;99.90;;;;;;5103885;28;20043;-64
2021/12/12 11:00:59;;;;;;;26.23;18.38;;;8.30;99.90;;;;;;5102835;28;20432;-63
2021/12/12 11:03:33;;;;;;;33.17;20.55;;;8.30;99.90;;;;;;5100944;28;20050;-63
2021/12/12 11:06:07;;;;;;;30.80;19.27;;;8.40;99.90;;;;;;5099889;28;20056;-63
2021/12/12 11:08:50;;;;;;;26.88;18.33;;;8.40;99.90;;;;;;5100358;28;20048;-63
2021/12/12 11:11:21;;;;;;;27.95;18.38;;;8.40;99.90;;;;;;5101988;28;20052;-63
2021/12/12 11:13:58;;;;;;;26.15;18.65;;;8.50;99.90;;;;;;5100896;28;20047;-64
2021/12/12 11:16:39;;;;;;;30.83;20.00;;;8.50;99.90;;;;;;5100243;28;20058;-63
2021/12/12 11:19:19;;;;;;;28.27;18.67;;;8.50;99.90;;;;;;5103994;28;20040;-63
2021/12/12 11:22:01;;;;;;;28.17;18.92;;;8.50;99.90;;;;;;5101679;28;20106;-63
2021/12/12 11:24:41;;;;;;;27.25;18.88;;;8.50;99.90;;;;;;5132117;27;20048;-64
2021/12/12 11:27:14;;;;;;;32.13;19.77;;;8.50;99.90;;;;;;5106435;28;20071;-64
2021/12/12 11:29:46;;;;;;;30.10;19.08;;;8.60;99.90;;;;;;5103106;28;20035;-63
2021/12/12 11:32:19;;;;;;;35.15;21.40;;;8.60;99.90;;;;;;5103302;27;20032;-63
2021/12/12 11:34:49;;;;;;;27.15;18.10;;;8.60;99.90;;;;;;5103028;27;20051;-63
2021/12/12 11:37:36;;;;;;;32.10;19.00;;;8.60;99.90;;;;;;5104434;27;20047;-63
2021/12/12 11:40:47;;;;;;;28.10;18.05;;;8.60;99.90;;;;;;5103942;27;20044;-64
2021/12/12 11:43:32;;;;;;;29.05;17.77;;;8.70;99.90;;;;;;5095666;27;20089;-63
2021/12/12 11:46:01;;;;;;;30.75;18.92;;;8.70;99.90;;;;;;5136055;27;20074;-64
2021/12/12 11:48:46;;;;;;;28.08;18.30;;;8.70;99.90;;;;;;5085760;28;20144;-64
2021/12/12 11:51:33;;;;;;;25.73;17.52;;;8.70;99.90;;;;;;5103195;27;20075;-63
2021/12/12 11:54:42;;;;;;;31.88;19.27;;;8.70;99.90;;;;;;5105933;27;21293;-63
2021/12/12 11:57:13;;;;;;;31.10;19.60;;;8.70;99.90;;;;;;5138817;27;20047;-63
2021/12/12 11:59:39;;;;;;;31.83;19.50;;;8.80;99.90;;;;;;5104303;27;20639;-64
2021/12/12 12:02:40;;;;;;;26.73;17.52;;;8.80;99.90;;;;;;5105086;27;20047;-63
2021/12/12 12:05:18;;;;;;;28.95;19.77;;;8.80;99.90;;;;;;5104409;27;20420;-63
2021/12/12 12:07:50;;;;;;;31.25;19.15;;;8.80;99.90;;;;;;5105381;27;20040;-63
2021/12/12 12:10:37;;;;;;;29.35;18.50;;;8.80;99.90;;;;;;5105168;27;20153;-64
2021/12/12 12:13:03;;;;;;;29.38;19.42;;;8.90;99.90;;;;;;5136790;27;20055;-64
2021/12/12 12:16:07;;;;;;;30.05;19.17;;;8.90;99.90;;;;;;5103931;27;20046;-63
2021/12/12 12:18:42;;;;;;;32.97;20.65;;;8.90;99.90;;;;;;5104565;27;20043;-63
2021/12/12 12:21:29;;;;;;;33.10;19.30;;;9.00;99.90;;;;;;5102334;27;20074;-63
2021/12/12 12:27:02;;;;;;;29.23;18.73;;;9.00;99.90;;;;;;5103169;27;20055;-64
2021/12/12 12:29:28;;;;;;;28.77;18.63;;;9.00;99.90;;;;;;5098410;27;20075;-63
2021/12/12 12:32:31;;;;;;;33.55;18.77;;;9.00;99.90;;;;;;5102584;27;20524;-64
2021/12/12 12:35:47;;;;;;;25.10;17.27;;;9.00;99.90;;;;;;5102727;27;20051;-64
2021/12/12 12:38:50;;;;;;;31.38;17.17;;;9.10;99.90;;;;;;5104003;27;20051;-64
2021/12/12 12:41:55;;;;;;;31.05;17.90;;;9.10;99.90;;;;;;5120914;27;20047;-63
2021/12/12 12:44:58;;;;;;;31.20;17.08;;;9.20;99.90;;;;;;5100476;27;20121;-64
2021/12/12 12:48:01;;;;;;;29.70;17.27;;;9.20;99.90;;;;;;5104047;28;20071;-63
2021/12/12 12:50:40;;;;;;;31.90;18.15;;;9.20;99.90;;;;;;5104914;27;20393;-63
2021/12/12 12:53:48;;;;;;;30.60;18.13;;;9.20;99.90;;;;;;5100189;27;20058;-64
2021/12/12 12:56:52;;;;;;;31.42;17.77;;;9.20;99.90;;;;;;5076815;27;20055;-64
2021/12/12 12:59:50;;;;;;;27.52;17.08;;;9.30;99.90;;;;;;5103684;27;20043;-64
2021/12/12 13:02:30;;;;;;;30.83;17.98;;;9.30;99.90;;;;;;5103704;27;20047;-64
2021/12/12 13:04:59;;;;;;;28.42;17.23;;;9.30;99.90;;;;;;5100310;27;20476;-64
2021/12/12 13:07:40;;;;;;;27.95;17.23;;;9.30;99.90;;;;;;5107826;27;20485;-64
2021/12/12 13:10:13;;;;;;;29.75;17.80;;;9.30;99.90;;;;;;5103818;27;20043;-64
2021/12/12 13:12:57;;;;;;;28.20;16.92;;;9.30;99.90;;;;;;5134051;27;20457;-64
2021/12/12 13:15:38;;;;;;;31.80;18.67;;;9.40;99.90;;;;;;5100345;28;20047;-64
2021/12/12 13:18:16;;;;;;;32.08;19.30;;;9.40;99.90;;;;;;5134215;27;20050;-64
2021/12/12 13:20:48;;;;;;;34.70;19.15;;;9.40;99.90;;;;;;5134818;27;20051;-64
2021/12/12 13:23:29;;;;;;;28.25;18.15;;;9.40;99.90;;;;;;5103216;28;20048;-64
2021/12/12 13:26:04;;;;;;;37.15;20.83;;;9.40;99.90;;;;;;5102755;27;20088;-64
2021/12/12 13:28:52;;;;;;;33.78;19.70;;;9.40;99.90;;;;;;5103775;27;20040;-64
2021/12/12 13:31:27;;;;;;;31.33;19.13;;;9.50;99.90;;;;;;5129777;27;20508;-64